sensor_id;sensor_type;location;lat;lon;timestamp;P1;durP1;ratioP1;P2;durP2;ratioP2
29196;SDS011;62796;42.654;23.316;2023-02-01T00:01:25;7.65;;;5.57;;
29196;SDS011;62796;42.654;23.316;2023-02-01T00:03:50;11.05;;;5.60;;
29196;SDS011;62796;42.654;23.316;2023-02-01T00:06:16;7.28;;;5.13;;
29196;SDS011;62796;42.654;23.316;2023-02-01T00:08:41;7.35;;;5.22;;
29196;SDS011;62796;42.654;23.316;2023-02-01T00:11:08;7.90;;;5.13;;
29196;SDS011;62796;42.654;23.316;2023-02-01T00:13:36;7.13;;;4.78;;
29196;SDS011;62796;42.654;23.316;2023-02-01T00:16:36;7.55;;;4.93;;
29196;SDS011;62796;42.654;23.316;2023-02-01T00:18:57;8.68;;;5.53;;
29196;SDS011;62796;42.654;23.316;2023-02-01T00:21:27;5.93;;;5.28;;
29196;SDS011;62796;42.654;23.316;2023-02-01T00:23:53;8.23;;;5.43;;
29196;SDS011;62796;42.654;23.316;2023-02-01T00:26:19;8.35;;;4.88;;
29196;SDS011;62796;42.654;23.316;2023-02-01T00:28:56;7.50;;;5.53;;
29196;SDS011;62796;42.654;23.316;2023-02-01T00:31:22;10.07;;;5.47;;
29196;SDS011;62796;42.654;23.316;2023-02-01T00:33:47;7.80;;;5.78;;
29196;SDS011;62796;42.654;23.316;2023-02-01T00:36:13;8.15;;;5.22;;
29196;SDS011;62796;42.654;23.316;2023-02-01T00:38:39;6.60;;;5.10;;
29196;SDS011;62796;42.654;23.316;2023-02-01T00:41:15;7.60;;;5.05;;
29196;SDS011;62796;42.654;23.316;2023-02-01T00:43:43;9.88;;;5.03;;
29196;SDS011;62796;42.654;23.316;2023-02-01T00:46:09;8.15;;;5.10;;
29196;SDS011;62796;42.654;23.316;2023-02-01T00:48:36;7.75;;;5.35;;
29196;SDS011;62796;42.654;23.316;2023-02-01T00:51:02;7.22;;;4.57;;
29196;SDS011;62796;42.654;23.316;2023-02-01T00:53:30;7.18;;;4.63;;
29196;SDS011;62796;42.654;23.316;2023-02-01T00:55:56;7.80;;;4.70;;
29196;SDS011;62796;42.654;23.316;2023-02-01T00:58:21;8.27;;;5.05;;
29196;SDS011;62796;42.654;23.316;2023-02-01T01:00:49;6.82;;;4.47;;
29196;SDS011;62796;42.654;23.316;2023-02-01T01:03:14;7.68;;;4.15;;
29196;SDS011;62796;42.654;23.316;2023-02-01T01:05:44;9.18;;;4.55;;
29196;SDS011;62796;42.654;23.316;2023-02-01T01:08:13;6.10;;;4.65;;
29196;SDS011;62796;42.654;23.316;2023-02-01T01:10:40;6.43;;;4.72;;
29196;SDS011;62796;42.654;23.316;2023-02-01T01:13:06;6.55;;;4.15;;
29196;SDS011;62796;42.654;23.316;2023-02-01T01:15:35;8.73;;;4.15;;
29196;SDS011;62796;42.654;23.316;2023-02-01T01:18:02;12.30;;;4.22;;
29196;SDS011;62796;42.654;23.316;2023-02-01T01:20:28;4.82;;;4.00;;
29196;SDS011;62796;42.654;23.316;2023-02-01T01:22:54;5.47;;;3.55;;
29196;SDS011;62796;42.654;23.316;2023-02-01T01:25:19;6.07;;;3.90;;
29196;SDS011;62796;42.654;23.316;2023-02-01T01:27:44;7.20;;;3.85;;
29196;SDS011;62796;42.654;23.316;2023-02-01T01:30:10;7.35;;;4.10;;
29196;SDS011;62796;42.654;23.316;2023-02-01T01:32:35;6.75;;;3.75;;
29196;SDS011;62796;42.654;23.316;2023-02-01T01:35:01;5.82;;;3.17;;
29196;SDS011;62796;42.654;23.316;2023-02-01T01:37:26;5.30;;;3.35;;
29196;SDS011;62796;42.654;23.316;2023-02-01T01:39:52;4.72;;;3.55;;
29196;SDS011;62796;42.654;23.316;2023-02-01T01:42:17;4.88;;;3.60;;
29196;SDS011;62796;42.654;23.316;2023-02-01T01:45:03;5.97;;;3.75;;
29196;SDS011;62796;42.654;23.316;2023-02-01T01:47:32;7.28;;;3.83;;
29196;SDS011;62796;42.654;23.316;2023-02-01T01:50:08;7.03;;;3.58;;
29196;SDS011;62796;42.654;23.316;2023-02-01T01:52:38;4.88;;;3.40;;
29196;SDS011;62796;42.654;23.316;2023-02-01T01:55:05;6.07;;;4.20;;
29196;SDS011;62796;42.654;23.316;2023-02-01T01:57:33;6.53;;;3.55;;
29196;SDS011;62796;42.654;23.316;2023-02-01T02:00:13;7.63;;;3.58;;
29196;SDS011;62796;42.654;23.316;2023-02-01T02:02:41;6.25;;;3.75;;
29196;SDS011;62796;42.654;23.316;2023-02-01T02:05:09;4.65;;;3.42;;
29196;SDS011;62796;42.654;23.316;2023-02-01T02:07:37;5.78;;;3.60;;
29196;SDS011;62796;42.654;23.316;2023-02-01T02:10:05;7.75;;;3.97;;
29196;SDS011;62796;42.654;23.316;2023-02-01T02:12:37;8.63;;;4.18;;
29196;SDS011;62796;42.654;23.316;2023-02-01T02:15:03;6.70;;;4.07;;
29196;SDS011;62796;42.654;23.316;2023-02-01T02:32:26;7.10;;;3.90;;
29196;SDS011;62796;42.654;23.316;2023-02-01T02:40:44;5.57;;;3.35;;
29196;SDS011;62796;42.654;23.316;2023-02-01T02:43:20;5.35;;;2.90;;
29196;SDS011;62796;42.654;23.316;2023-02-01T02:46:29;6.95;;;3.35;;
29196;SDS011;62796;42.654;23.316;2023-02-01T02:52:19;4.90;;;3.15;;
29196;SDS011;62796;42.654;23.316;2023-02-01T02:55:16;7.97;;;2.97;;
29196;SDS011;62796;42.654;23.316;2023-02-01T02:57:42;4.47;;;3.03;;
29196;SDS011;62796;42.654;23.316;2023-02-01T03:00:28;4.88;;;2.65;;
29196;SDS011;62796;42.654;23.316;2023-02-01T03:03:15;4.45;;;2.70;;
29196;SDS011;62796;42.654;23.316;2023-02-01T03:05:59;6.22;;;2.63;;
29196;SDS011;62796;42.654;23.316;2023-02-01T03:08:26;4.40;;;2.50;;
29196;SDS011;62796;42.654;23.316;2023-02-01T03:10:55;6.13;;;3.03;;
29196;SDS011;62796;42.654;23.316;2023-02-01T03:13:27;5.95;;;3.22;;
29196;SDS011;62796;42.654;23.316;2023-02-01T03:16:07;5.50;;;2.78;;
29196;SDS011;62796;42.654;23.316;2023-02-01T03:21:35;5.65;;;2.75;;
29196;SDS011;62796;42.654;23.316;2023-02-01T03:24:23;5.85;;;2.47;;
29196;SDS011;62796;42.654;23.316;2023-02-01T03:29:40;4.10;;;2.67;;
29196;SDS011;62796;42.654;23.316;2023-02-01T03:32:10;8.98;;;3.22;;
29196;SDS011;62796;42.654;23.316;2023-02-01T03:34:36;5.22;;;3.10;;
29196;SDS011;62796;42.654;23.316;2023-02-01T03:37:02;3.78;;;2.78;;
29196;SDS011;62796;42.654;23.316;2023-02-01T03:39:41;6.20;;;3.03;;
29196;SDS011;62796;42.654;23.316;2023-02-01T03:42:27;6.38;;;4.18;;
29196;SDS011;62796;42.654;23.316;2023-02-01T03:47:46;4.22;;;2.60;;
29196;SDS011;62796;42.654;23.316;2023-02-01T03:50:15;3.28;;;2.22;;
29196;SDS011;62796;42.654;23.316;2023-02-01T03:52:45;5.05;;;2.25;;
29196;SDS011;62796;42.654;23.316;2023-02-01T03:55:16;3.40;;;2.30;;
29196;SDS011;62796;42.654;23.316;2023-02-01T03:57:49;5.82;;;2.90;;
29196;SDS011;62796;42.654;23.316;2023-02-01T04:00:19;5.85;;;2.70;;
29196;SDS011;62796;42.654;23.316;2023-02-01T04:02:47;4.63;;;2.28;;
29196;SDS011;62796;42.654;23.316;2023-02-01T04:05:12;4.22;;;2.67;;
29196;SDS011;62796;42.654;23.316;2023-02-01T04:07:38;6.35;;;4.05;;
29196;SDS011;62796;42.654;23.316;2023-02-01T04:10:03;7.80;;;3.17;;
29196;SDS011;62796;42.654;23.316;2023-02-01T04:12:29;5.43;;;3.10;;
29196;SDS011;62796;42.654;23.316;2023-02-01T04:14:55;9.27;;;4.10;;
29196;SDS011;62796;42.654;23.316;2023-02-01T04:17:20;3.45;;;2.55;;
29196;SDS011;62796;42.654;23.316;2023-02-01T04:19:45;7.82;;;3.92;;
29196;SDS011;62796;42.654;23.316;2023-02-01T04:22:11;6.45;;;3.30;;
29196;SDS011;62796;42.654;23.316;2023-02-01T04:24:37;5.18;;;3.40;;
29196;SDS011;62796;42.654;23.316;2023-02-01T04:27:03;7.88;;;3.83;;
29196;SDS011;62796;42.654;23.316;2023-02-01T04:29:28;8.55;;;3.88;;
29196;SDS011;62796;42.654;23.316;2023-02-01T04:31:54;8.48;;;3.53;;
29196;SDS011;62796;42.654;23.316;2023-02-01T04:34:19;7.38;;;3.45;;
29196;SDS011;62796;42.654;23.316;2023-02-01T04:36:44;6.05;;;3.88;;
29196;SDS011;62796;42.654;23.316;2023-02-01T04:39:10;5.78;;;3.83;;
29196;SDS011;62796;42.654;23.316;2023-02-01T04:41:35;5.07;;;4.18;;
29196;SDS011;62796;42.654;23.316;2023-02-01T04:44:01;9.43;;;4.15;;
29196;SDS011;62796;42.654;23.316;2023-02-01T04:46:26;8.10;;;3.95;;
29196;SDS011;62796;42.654;23.316;2023-02-01T04:48:52;8.48;;;4.40;;
29196;SDS011;62796;42.654;23.316;2023-02-01T04:51:17;7.22;;;4.05;;
29196;SDS011;62796;42.654;23.316;2023-02-01T04:53:43;8.80;;;4.22;;
29196;SDS011;62796;42.654;23.316;2023-02-01T04:56:09;5.78;;;3.78;;
29196;SDS011;62796;42.654;23.316;2023-02-01T04:58:34;9.45;;;4.47;;
29196;SDS011;62796;42.654;23.316;2023-02-01T05:01:03;6.38;;;4.22;;
29196;SDS011;62796;42.654;23.316;2023-02-01T05:03:29;11.13;;;4.93;;
29196;SDS011;62796;42.654;23.316;2023-02-01T05:05:56;11.60;;;4.80;;
29196;SDS011;62796;42.654;23.316;2023-02-01T05:08:21;10.05;;;5.63;;
29196;SDS011;62796;42.654;23.316;2023-02-01T05:10:47;13.85;;;5.65;;
29196;SDS011;62796;42.654;23.316;2023-02-01T05:13:13;7.38;;;4.30;;
29196;SDS011;62796;42.654;23.316;2023-02-01T05:15:57;7.97;;;4.40;;
29196;SDS011;62796;42.654;23.316;2023-02-01T05:18:22;9.18;;;5.18;;
29196;SDS011;62796;42.654;23.316;2023-02-01T05:20:47;9.73;;;5.35;;
29196;SDS011;62796;42.654;23.316;2023-02-01T05:23:13;13.48;;;4.70;;
29196;SDS011;62796;42.654;23.316;2023-02-01T05:25:38;7.72;;;4.47;;
29196;SDS011;62796;42.654;23.316;2023-02-01T05:28:03;8.77;;;5.63;;
29196;SDS011;62796;42.654;23.316;2023-02-01T05:30:29;14.45;;;4.55;;
29196;SDS011;62796;42.654;23.316;2023-02-01T05:32:54;10.45;;;5.15;;
29196;SDS011;62796;42.654;23.316;2023-02-01T05:35:20;9.65;;;5.65;;
29196;SDS011;62796;42.654;23.316;2023-02-01T05:37:45;15.95;;;5.45;;
29196;SDS011;62796;42.654;23.316;2023-02-01T05:40:11;15.20;;;6.25;;
29196;SDS011;62796;42.654;23.316;2023-02-01T05:42:36;13.07;;;5.40;;
29196;SDS011;62796;42.654;23.316;2023-02-01T05:45:02;10.05;;;4.90;;
29196;SDS011;62796;42.654;23.316;2023-02-01T05:47:30;10.07;;;5.10;;
29196;SDS011;62796;42.654;23.316;2023-02-01T05:49:55;13.82;;;4.90;;
29196;SDS011;62796;42.654;23.316;2023-02-01T05:52:21;7.45;;;4.32;;
29196;SDS011;62796;42.654;23.316;2023-02-01T05:54:46;8.82;;;4.65;;
29196;SDS011;62796;42.654;23.316;2023-02-01T05:57:12;12.68;;;4.55;;
29196;SDS011;62796;42.654;23.316;2023-02-01T05:59:38;11.48;;;4.70;;
29196;SDS011;62796;42.654;23.316;2023-02-01T06:02:06;10.90;;;4.57;;
29196;SDS011;62796;42.654;23.316;2023-02-01T06:04:33;10.63;;;4.07;;
29196;SDS011;62796;42.654;23.316;2023-02-01T06:06:59;7.15;;;3.75;;
29196;SDS011;62796;42.654;23.316;2023-02-01T06:09:24;11.70;;;5.55;;
29196;SDS011;62796;42.654;23.316;2023-02-01T06:11:49;15.98;;;6.65;;
29196;SDS011;62796;42.654;23.316;2023-02-01T06:14:15;11.02;;;5.50;;
29196;SDS011;62796;42.654;23.316;2023-02-01T06:16:40;11.35;;;5.05;;
29196;SDS011;62796;42.654;23.316;2023-02-01T06:19:06;11.80;;;4.88;;
29196;SDS011;62796;42.654;23.316;2023-02-01T06:21:31;8.57;;;4.35;;
29196;SDS011;62796;42.654;23.316;2023-02-01T06:23:58;11.02;;;4.20;;
29196;SDS011;62796;42.654;23.316;2023-02-01T06:26:24;10.15;;;4.43;;
29196;SDS011;62796;42.654;23.316;2023-02-01T06:28:49;14.77;;;6.00;;
29196;SDS011;62796;42.654;23.316;2023-02-01T06:31:15;13.13;;;5.68;;
29196;SDS011;62796;42.654;23.316;2023-02-01T06:33:40;14.85;;;5.68;;
29196;SDS011;62796;42.654;23.316;2023-02-01T06:36:07;10.50;;;4.10;;
29196;SDS011;62796;42.654;23.316;2023-02-01T06:38:35;18.52;;;5.57;;
29196;SDS011;62796;42.654;23.316;2023-02-01T06:41:00;16.63;;;4.80;;
29196;SDS011;62796;42.654;23.316;2023-02-01T06:43:27;12.45;;;4.28;;
29196;SDS011;62796;42.654;23.316;2023-02-01T06:45:53;11.13;;;4.70;;
29196;SDS011;62796;42.654;23.316;2023-02-01T06:48:24;10.77;;;4.07;;
29196;SDS011;62796;42.654;23.316;2023-02-01T06:50:49;12.45;;;4.35;;
29196;SDS011;62796;42.654;23.316;2023-02-01T06:53:15;12.85;;;5.28;;
29196;SDS011;62796;42.654;23.316;2023-02-01T06:55:40;11.50;;;5.35;;
29196;SDS011;62796;42.654;23.316;2023-02-01T06:58:05;10.63;;;5.10;;
29196;SDS011;62796;42.654;23.316;2023-02-01T07:00:31;14.10;;;5.57;;
29196;SDS011;62796;42.654;23.316;2023-02-01T07:02:57;10.32;;;4.90;;
29196;SDS011;62796;42.654;23.316;2023-02-01T07:05:23;8.93;;;4.50;;
29196;SDS011;62796;42.654;23.316;2023-02-01T07:07:49;11.52;;;4.43;;
29196;SDS011;62796;42.654;23.316;2023-02-01T07:10:14;16.77;;;5.72;;
29196;SDS011;62796;42.654;23.316;2023-02-01T07:12:40;13.32;;;5.13;;
29196;SDS011;62796;42.654;23.316;2023-02-01T07:15:05;10.43;;;4.45;;
29196;SDS011;62796;42.654;23.316;2023-02-01T07:17:31;12.68;;;4.43;;
29196;SDS011;62796;42.654;23.316;2023-02-01T07:19:57;15.82;;;4.75;;
29196;SDS011;62796;42.654;23.316;2023-02-01T07:22:24;13.85;;;4.90;;
29196;SDS011;62796;42.654;23.316;2023-02-01T07:24:50;19.38;;;6.55;;
29196;SDS011;62796;42.654;23.316;2023-02-01T07:27:15;8.68;;;4.65;;
29196;SDS011;62796;42.654;23.316;2023-02-01T07:29:41;10.32;;;4.82;;
29196;SDS011;62796;42.654;23.316;2023-02-01T07:32:06;12.25;;;4.93;;
29196;SDS011;62796;42.654;23.316;2023-02-01T07:34:32;9.15;;;3.80;;
29196;SDS011;62796;42.654;23.316;2023-02-01T07:36:57;9.20;;;3.80;;
29196;SDS011;62796;42.654;23.316;2023-02-01T07:39:23;14.98;;;4.30;;
29196;SDS011;62796;42.654;23.316;2023-02-01T07:41:48;7.78;;;4.00;;
29196;SDS011;62796;42.654;23.316;2023-02-01T07:44:14;12.50;;;3.78;;
29196;SDS011;62796;42.654;23.316;2023-02-01T07:46:39;7.97;;;3.58;;
29196;SDS011;62796;42.654;23.316;2023-02-01T07:49:08;10.65;;;3.50;;
29196;SDS011;62796;42.654;23.316;2023-02-01T07:51:33;7.65;;;3.67;;
29196;SDS011;62796;42.654;23.316;2023-02-01T07:53:59;7.80;;;4.40;;
29196;SDS011;62796;42.654;23.316;2023-02-01T07:56:24;12.02;;;4.22;;
29196;SDS011;62796;42.654;23.316;2023-02-01T07:58:50;10.70;;;4.10;;
29196;SDS011;62796;42.654;23.316;2023-02-01T08:01:21;8.18;;;3.50;;
29196;SDS011;62796;42.654;23.316;2023-02-01T08:03:50;6.75;;;3.08;;
29196;SDS011;62796;42.654;23.316;2023-02-01T08:06:18;9.13;;;3.33;;
29196;SDS011;62796;42.654;23.316;2023-02-01T08:08:45;7.05;;;3.33;;
29196;SDS011;62796;42.654;23.316;2023-02-01T08:11:12;13.98;;;5.22;;
29196;SDS011;62796;42.654;23.316;2023-02-01T08:13:38;11.70;;;4.60;;
29196;SDS011;62796;42.654;23.316;2023-02-01T08:16:05;7.30;;;3.95;;
29196;SDS011;62796;42.654;23.316;2023-02-01T08:18:32;7.47;;;2.88;;
29196;SDS011;62796;42.654;23.316;2023-02-01T08:21:05;9.07;;;3.55;;
29196;SDS011;62796;42.654;23.316;2023-02-01T08:23:51;10.43;;;3.92;;
29196;SDS011;62796;42.654;23.316;2023-02-01T08:26:21;8.15;;;3.92;;
29196;SDS011;62796;42.654;23.316;2023-02-01T08:28:50;10.48;;;3.63;;
29196;SDS011;62796;42.654;23.316;2023-02-01T08:31:21;18.55;;;5.30;;
29196;SDS011;62796;42.654;23.316;2023-02-01T08:33:51;10.23;;;4.25;;
29196;SDS011;62796;42.654;23.316;2023-02-01T08:36:19;10.27;;;4.90;;
29196;SDS011;62796;42.654;23.316;2023-02-01T08:38:45;11.25;;;4.10;;
29196;SDS011;62796;42.654;23.316;2023-02-01T08:41:12;8.80;;;3.30;;
29196;SDS011;62796;42.654;23.316;2023-02-01T08:43:40;11.57;;;3.30;;
29196;SDS011;62796;42.654;23.316;2023-02-01T08:46:06;5.50;;;3.03;;
29196;SDS011;62796;42.654;23.316;2023-02-01T08:48:33;9.07;;;4.45;;
29196;SDS011;62796;42.654;23.316;2023-02-01T08:51:06;9.05;;;3.83;;
29196;SDS011;62796;42.654;23.316;2023-02-01T08:53:33;8.75;;;3.40;;
29196;SDS011;62796;42.654;23.316;2023-02-01T08:55:59;9.65;;;3.20;;
29196;SDS011;62796;42.654;23.316;2023-02-01T08:58:25;10.73;;;3.33;;
29196;SDS011;62796;42.654;23.316;2023-02-01T09:00:51;8.68;;;2.88;;
29196;SDS011;62796;42.654;23.316;2023-02-01T09:03:16;8.02;;;3.47;;
29196;SDS011;62796;42.654;23.316;2023-02-01T09:05:42;8.70;;;3.25;;
29196;SDS011;62796;42.654;23.316;2023-02-01T09:08:08;14.85;;;3.95;;
29196;SDS011;62796;42.654;23.316;2023-02-01T09:10:34;12.75;;;3.83;;
29196;SDS011;62796;42.654;23.316;2023-02-01T09:13:01;9.43;;;3.88;;
29196;SDS011;62796;42.654;23.316;2023-02-01T09:15:27;14.38;;;4.68;;
29196;SDS011;62796;42.654;23.316;2023-02-01T09:17:53;7.05;;;3.72;;
29196;SDS011;62796;42.654;23.316;2023-02-01T09:20:18;7.90;;;3.10;;
29196;SDS011;62796;42.654;23.316;2023-02-01T09:22:48;5.60;;;2.95;;
29196;SDS011;62796;42.654;23.316;2023-02-01T09:25:14;5.70;;;2.85;;
29196;SDS011;62796;42.654;23.316;2023-02-01T09:27:40;12.23;;;3.88;;
29196;SDS011;62796;42.654;23.316;2023-02-01T09:30:05;12.43;;;3.13;;
29196;SDS011;62796;42.654;23.316;2023-02-01T09:32:31;7.28;;;3.35;;
29196;SDS011;62796;42.654;23.316;2023-02-01T09:34:56;7.90;;;3.72;;
29196;SDS011;62796;42.654;23.316;2023-02-01T09:37:22;8.32;;;3.72;;
29196;SDS011;62796;42.654;23.316;2023-02-01T09:39:47;7.35;;;3.20;;
29196;SDS011;62796;42.654;23.316;2023-02-01T09:42:19;11.15;;;3.33;;
29196;SDS011;62796;42.654;23.316;2023-02-01T09:45:06;5.35;;;2.72;;
29196;SDS011;62796;42.654;23.316;2023-02-01T09:47:53;8.93;;;4.20;;
29196;SDS011;62796;42.654;23.316;2023-02-01T09:50:24;12.32;;;4.68;;
29196;SDS011;62796;42.654;23.316;2023-02-01T09:52:59;6.65;;;3.97;;
29196;SDS011;62796;42.654;23.316;2023-02-01T09:58:12;8.80;;;3.70;;
29196;SDS011;62796;42.654;23.316;2023-02-01T10:00:44;13.85;;;4.20;;
29196;SDS011;62796;42.654;23.316;2023-02-01T10:03:16;9.15;;;3.05;;
29196;SDS011;62796;42.654;23.316;2023-02-01T10:08:13;13.07;;;3.53;;
29196;SDS011;62796;42.654;23.316;2023-02-01T10:11:13;9.82;;;3.15;;
29196;SDS011;62796;42.654;23.316;2023-02-01T10:22:44;7.88;;;3.20;;
29196;SDS011;62796;42.654;23.316;2023-02-01T10:27:46;16.85;;;3.80;;
29196;SDS011;62796;42.654;23.316;2023-02-01T10:32:38;5.35;;;2.40;;
29196;SDS011;62796;42.654;23.316;2023-02-01T10:35:18;5.68;;;2.40;;
29196;SDS011;62796;42.654;23.316;2023-02-01T10:37:48;6.97;;;2.60;;
29196;SDS011;62796;42.654;23.316;2023-02-01T10:40:22;8.13;;;2.97;;
29196;SDS011;62796;42.654;23.316;2023-02-01T10:42:49;6.65;;;3.08;;
29196;SDS011;62796;42.654;23.316;2023-02-01T10:45:19;6.88;;;2.80;;
29196;SDS011;62796;42.654;23.316;2023-02-01T10:47:47;9.85;;;2.75;;
29196;SDS011;62796;42.654;23.316;2023-02-01T10:50:19;7.53;;;2.70;;
29196;SDS011;62796;42.654;23.316;2023-02-01T10:55:40;6.40;;;2.75;;
29196;SDS011;62796;42.654;23.316;2023-02-01T10:58:20;5.43;;;2.63;;
29196;SDS011;62796;42.654;23.316;2023-02-01T11:05:59;9.95;;;2.78;;
29196;SDS011;62796;42.654;23.316;2023-02-01T11:08:25;7.95;;;2.90;;
29196;SDS011;62796;42.654;23.316;2023-02-01T11:11:02;9.57;;;3.72;;
29196;SDS011;62796;42.654;23.316;2023-02-01T11:13:31;9.98;;;3.35;;
29196;SDS011;62796;42.654;23.316;2023-02-01T11:16:01;8.27;;;2.85;;
29196;SDS011;62796;42.654;23.316;2023-02-01T11:18:30;11.73;;;2.95;;
29196;SDS011;62796;42.654;23.316;2023-02-01T11:20:59;6.93;;;2.65;;
29196;SDS011;62796;42.654;23.316;2023-02-01T11:23:26;7.85;;;2.92;;
29196;SDS011;62796;42.654;23.316;2023-02-01T11:25:54;6.68;;;3.00;;
29196;SDS011;62796;42.654;23.316;2023-02-01T11:28:25;7.30;;;2.33;;
29196;SDS011;62796;42.654;23.316;2023-02-01T11:30:58;7.85;;;3.03;;
29196;SDS011;62796;42.654;23.316;2023-02-01T11:33:29;3.35;;;2.15;;
29196;SDS011;62796;42.654;23.316;2023-02-01T11:36:00;4.88;;;1.90;;
29196;SDS011;62796;42.654;23.316;2023-02-01T11:38:51;15.85;;;4.25;;
29196;SDS011;62796;42.654;23.316;2023-02-01T11:41:24;4.45;;;2.40;;
29196;SDS011;62796;42.654;23.316;2023-02-01T11:43:53;5.97;;;2.03;;
29196;SDS011;62796;42.654;23.316;2023-02-01T11:46:28;3.42;;;2.20;;
29196;SDS011;62796;42.654;23.316;2023-02-01T11:49:13;5.25;;;2.40;;
29196;SDS011;62796;42.654;23.316;2023-02-01T11:52:07;4.53;;;1.98;;
29196;SDS011;62796;42.654;23.316;2023-02-01T12:27:27;12.23;;;3.03;;
29196;SDS011;62796;42.654;23.316;2023-02-01T12:32:47;3.25;;;2.30;;
29196;SDS011;62796;42.654;23.316;2023-02-01T12:47:22;9.82;;;3.13;;
29196;SDS011;62796;42.654;23.316;2023-02-01T12:50:05;7.95;;;2.75;;
29196;SDS011;62796;42.654;23.316;2023-02-01T12:53:03;5.03;;;2.13;;
29196;SDS011;62796;42.654;23.316;2023-02-01T12:55:36;7.43;;;2.30;;
29196;SDS011;62796;42.654;23.316;2023-02-01T13:00:49;7.93;;;2.63;;
29196;SDS011;62796;42.654;23.316;2023-02-01T13:08:41;16.35;;;3.70;;
29196;SDS011;62796;42.654;23.316;2023-02-01T13:11:31;10.27;;;3.17;;
29196;SDS011;62796;42.654;23.316;2023-02-01T13:14:05;6.50;;;3.22;;
29196;SDS011;62796;42.654;23.316;2023-02-01T13:16:34;7.40;;;4.53;;
29196;SDS011;62796;42.654;23.316;2023-02-01T13:22:09;11.73;;;4.85;;
29196;SDS011;62796;42.654;23.316;2023-02-01T13:24:52;9.20;;;4.13;;
29196;SDS011;62796;42.654;23.316;2023-02-01T13:27:36;5.53;;;3.33;;
29196;SDS011;62796;42.654;23.316;2023-02-01T13:35:52;7.90;;;3.15;;
29196;SDS011;62796;42.654;23.316;2023-02-01T13:43:52;6.00;;;2.83;;
29196;SDS011;62796;42.654;23.316;2023-02-01T13:46:21;5.65;;;3.10;;
29196;SDS011;62796;42.654;23.316;2023-02-01T13:48:51;6.28;;;2.63;;
29196;SDS011;62796;42.654;23.316;2023-02-01T13:51:43;5.40;;;2.55;;
29196;SDS011;62796;42.654;23.316;2023-02-01T13:56:48;7.22;;;3.55;;
29196;SDS011;62796;42.654;23.316;2023-02-01T14:02:47;5.80;;;2.72;;
29196;SDS011;62796;42.654;23.316;2023-02-01T14:05:08;11.18;;;3.50;;
29196;SDS011;62796;42.654;23.316;2023-02-01T14:13:36;4.32;;;2.20;;
29196;SDS011;62796;42.654;23.316;2023-02-01T14:16:11;12.18;;;3.58;;
29196;SDS011;62796;42.654;23.316;2023-02-01T14:21:19;9.38;;;3.40;;
29196;SDS011;62796;42.654;23.316;2023-02-01T14:26:48;12.27;;;3.72;;
29196;SDS011;62796;42.654;23.316;2023-02-01T14:34:19;12.00;;;3.83;;
29196;SDS011;62796;42.654;23.316;2023-02-01T14:36:48;7.50;;;2.85;;
29196;SDS011;62796;42.654;23.316;2023-02-01T14:39:29;5.47;;;2.22;;
29196;SDS011;62796;42.654;23.316;2023-02-01T14:47:54;11.25;;;3.65;;
29196;SDS011;62796;42.654;23.316;2023-02-01T14:50:44;6.45;;;2.70;;
29196;SDS011;62796;42.654;23.316;2023-02-01T15:09:04;6.47;;;3.25;;
29196;SDS011;62796;42.654;23.316;2023-02-01T15:11:32;10.32;;;3.75;;
29196;SDS011;62796;42.654;23.316;2023-02-01T15:14:18;7.97;;;3.53;;
29196;SDS011;62796;42.654;23.316;2023-02-01T15:16:43;9.60;;;4.38;;
29196;SDS011;62796;42.654;23.316;2023-02-01T15:19:14;9.40;;;3.60;;
29196;SDS011;62796;42.654;23.316;2023-02-01T15:21:45;6.40;;;3.30;;
29196;SDS011;62796;42.654;23.316;2023-02-01T15:24:20;10.15;;;4.05;;
29196;SDS011;62796;42.654;23.316;2023-02-01T15:27:04;8.15;;;3.85;;
29196;SDS011;62796;42.654;23.316;2023-02-01T15:29:31;7.05;;;4.03;;
29196;SDS011;62796;42.654;23.316;2023-02-01T15:31:59;11.35;;;3.97;;
29196;SDS011;62796;42.654;23.316;2023-02-01T15:34:43;4.50;;;2.88;;
29196;SDS011;62796;42.654;23.316;2023-02-01T15:37:13;5.30;;;2.72;;
29196;SDS011;62796;42.654;23.316;2023-02-01T15:42:34;5.82;;;2.90;;
29196;SDS011;62796;42.654;23.316;2023-02-01T15:45:03;5.85;;;2.90;;
29196;SDS011;62796;42.654;23.316;2023-02-01T15:47:29;6.13;;;2.95;;
29196;SDS011;62796;42.654;23.316;2023-02-01T15:49:57;6.88;;;2.60;;
29196;SDS011;62796;42.654;23.316;2023-02-01T15:52:35;5.30;;;3.20;;
29196;SDS011;62796;42.654;23.316;2023-02-01T15:55:07;5.10;;;2.97;;
29196;SDS011;62796;42.654;23.316;2023-02-01T15:57:42;4.40;;;2.80;;
29196;SDS011;62796;42.654;23.316;2023-02-01T16:00:22;7.93;;;2.97;;
29196;SDS011;62796;42.654;23.316;2023-02-01T16:02:53;5.80;;;2.55;;
29196;SDS011;62796;42.654;23.316;2023-02-01T16:05:42;4.70;;;2.85;;
29196;SDS011;62796;42.654;23.316;2023-02-01T16:08:13;6.78;;;2.47;;
29196;SDS011;62796;42.654;23.316;2023-02-01T16:10:47;9.10;;;3.65;;
29196;SDS011;62796;42.654;23.316;2023-02-01T16:13:14;8.43;;;2.92;;
29196;SDS011;62796;42.654;23.316;2023-02-01T16:15:41;9.07;;;3.60;;
29196;SDS011;62796;42.654;23.316;2023-02-01T16:18:07;4.47;;;2.65;;
29196;SDS011;62796;42.654;23.316;2023-02-01T16:20:33;8.48;;;3.13;;
29196;SDS011;62796;42.654;23.316;2023-02-01T16:23:00;8.52;;;4.22;;
29196;SDS011;62796;42.654;23.316;2023-02-01T16:25:26;9.18;;;3.28;;
29196;SDS011;62796;42.654;23.316;2023-02-01T16:27:52;6.53;;;2.63;;
29196;SDS011;62796;42.654;23.316;2023-02-01T16:30:18;8.43;;;3.67;;
29196;SDS011;62796;42.654;23.316;2023-02-01T16:32:48;12.02;;;4.47;;
29196;SDS011;62796;42.654;23.316;2023-02-01T16:35:24;7.13;;;4.28;;
29196;SDS011;62796;42.654;23.316;2023-02-01T16:37:53;10.30;;;4.93;;
29196;SDS011;62796;42.654;23.316;2023-02-01T16:40:19;5.72;;;3.05;;
29196;SDS011;62796;42.654;23.316;2023-02-01T16:42:49;12.18;;;4.25;;
29196;SDS011;62796;42.654;23.316;2023-02-01T16:45:16;7.43;;;3.75;;
29196;SDS011;62796;42.654;23.316;2023-02-01T16:47:43;9.85;;;4.00;;
29196;SDS011;62796;42.654;23.316;2023-02-01T16:50:16;8.43;;;4.45;;
29196;SDS011;62796;42.654;23.316;2023-02-01T16:52:49;7.10;;;3.47;;
29196;SDS011;62796;42.654;23.316;2023-02-01T16:55:17;5.53;;;2.72;;
29196;SDS011;62796;42.654;23.316;2023-02-01T16:57:44;10.02;;;4.38;;
29196;SDS011;62796;42.654;23.316;2023-02-01T17:00:11;7.43;;;4.03;;
29196;SDS011;62796;42.654;23.316;2023-02-01T17:02:37;11.75;;;3.97;;
29196;SDS011;62796;42.654;23.316;2023-02-01T17:05:02;9.85;;;4.68;;
29196;SDS011;62796;42.654;23.316;2023-02-01T17:07:29;7.75;;;4.25;;
29196;SDS011;62796;42.654;23.316;2023-02-01T17:09:54;10.25;;;4.50;;
29196;SDS011;62796;42.654;23.316;2023-02-01T17:12:24;16.90;;;4.07;;
29196;SDS011;62796;42.654;23.316;2023-02-01T17:14:51;19.60;;;5.93;;
29196;SDS011;62796;42.654;23.316;2023-02-01T17:17:18;17.23;;;5.53;;
29196;SDS011;62796;42.654;23.316;2023-02-01T17:19:45;20.40;;;5.97;;
29196;SDS011;62796;42.654;23.316;2023-02-01T17:22:16;14.32;;;5.38;;
29196;SDS011;62796;42.654;23.316;2023-02-01T17:24:43;14.05;;;5.55;;
29196;SDS011;62796;42.654;23.316;2023-02-01T17:27:08;6.57;;;3.20;;
29196;SDS011;62796;42.654;23.316;2023-02-01T17:29:34;5.45;;;2.65;;
29196;SDS011;62796;42.654;23.316;2023-02-01T17:31:59;7.28;;;3.00;;
29196;SDS011;62796;42.654;23.316;2023-02-01T17:34:25;5.78;;;2.90;;
29196;SDS011;62796;42.654;23.316;2023-02-01T17:36:51;4.30;;;2.83;;
29196;SDS011;62796;42.654;23.316;2023-02-01T17:39:17;4.78;;;2.78;;
29196;SDS011;62796;42.654;23.316;2023-02-01T17:42:02;6.22;;;3.20;;